Time;durP1;ratioP1;P1;durP2;ratioP2;P2;SDS_P1;SDS_P2;PMS_P1;PMS_P2;Temp;Humidity;BMP_temperature;BMP_pressure;BME280_temperature;BME280_humidity;BME280_pressure;Samples;Min_cycle;Max_cycle;Signal;HPM_P1;HPM_P2
2022/03/20 00:00:26;;;;;;;28.60;12.65;;;;;;;;;;5080090;28;20074;-50
2022/03/20 00:02:53;;;;;;;28.50;12.85;;;;;;;;;;5081432;28;20016;-51
2022/03/20 00:05:19;;;;;;;28.08;13.63;;;;;;;;;;5072981;28;20651;-51
2022/03/20 00:07:46;;;;;;;23.33;12.55;;;;;;;;;;5088281;28;20116;-51
2022/03/20 00:10:12;;;;;;;24.05;13.48;;;;;;;;;;5080032;28;20074;-47
2022/03/20 00:12:39;;;;;;;28.40;13.52;;;;;;;;;;5088756;28;20024;-51
2022/03/20 00:15:05;;;;;;;26.30;13.77;;;;;;;;;;5085433;28;20052;-47
2022/03/20 00:17:31;;;;;;;23.65;13.27;;;;;;;;;;5075352;28;20029;-46
2022/03/20 00:19:57;;;;;;;25.05;13.40;;;;;;;;;;5086192;28;20028;-51
2022/03/20 00:22:24;;;;;;;28.60;13.48;;;;;;;;;;5083850;28;20024;-52
2022/03/20 00:24:50;;;;;;;28.50;12.73;;;;;;;;;;5086084;28;20099;-48
2022/03/20 00:27:16;;;;;;;27.67;13.63;;;;;;;;;;5079713;28;20431;-48
2022/03/20 00:29:42;;;;;;;27.20;12.65;;;;;;;;;;5084841;28;20024;-47
2022/03/20 00:32:09;;;;;;;26.83;12.43;;;;;;;;;;5093667;28;20123;-51
2022/03/20 00:34:35;;;;;;;30.13;13.10;;;;;;;;;;5088354;28;20110;-48
2022/03/20 00:37:01;;;;;;;24.85;12.70;;;;;;;;;;5077904;28;20054;-50
2022/03/20 00:39:27;;;;;;;29.30;13.60;;;;;;;;;;5074772;28;20040;-47
2022/03/20 00:41:53;;;;;;;29.45;14.55;;;;;;;;;;5082782;28;20024;-48
2022/03/20 00:44:19;;;;;;;29.08;13.60;;;;;;;;;;5081384;28;20441;-48
2022/03/20 00:46:45;;;;;;;33.83;14.15;;;;;;;;;;5085119;28;20028;-47
2022/03/20 00:49:12;;;;;;;25.92;12.82;;;;;;;;;;5093508;28;20035;-47
2022/03/20 00:51:38;;;;;;;26.85;13.50;;;;;;;;;;5078410;28;20039;-48
2022/03/20 00:54:04;;;;;;;28.75;14.15;;;;;;;;;;5080990;28;20052;-50
2022/03/20 00:56:30;;;;;;;25.17;12.90;;;;;;;;;;5077296;28;20028;-46
2022/03/20 00:58:56;;;;;;;31.90;13.70;;;;;;;;;;5090694;28;20024;-50
2022/03/20 01:01:22;;;;;;;28.30;13.77;;;;;;;;;;5089414;28;20119;-50
2022/03/20 01:03:48;;;;;;;22.95;12.13;;;;;;;;;;5084628;28;20024;-51
2022/03/20 01:06:14;;;;;;;27.05;12.63;;;;;;;;;;5091879;28;20032;-50
2022/03/20 01:08:40;;;;;;;31.45;13.88;;;;;;;;;;5085966;28;20028;-52
2022/03/20 01:11:07;;;;;;;27.92;13.65;;;;;;;;;;5087523;28;20043;-49
2022/03/20 01:13:33;;;;;;;31.70;14.77;;;;;;;;;;5084686;28;20036;-49
2022/03/20 01:15:59;;;;;;;24.75;13.30;;;;;;;;;;5089016;28;20078;-51
2022/03/20 01:18:25;;;;;;;29.23;13.27;;;;;;;;;;5089881;28;20069;-47
2022/03/20 01:20:52;;;;;;;24.42;12.85;;;;;;;;;;5082506;28;20020;-46
2022/03/20 01:23:21;;;;;;;27.10;12.70;;;;;;;;;;5092060;28;20111;-49
2022/03/20 01:25:47;;;;;;;27.73;13.60;;;;;;;;;;5075060;28;20017;-47
2022/03/20 01:28:13;;;;;;;26.08;13.20;;;;;;;;;;5078054;28;20020;-46
2022/03/20 01:30:38;;;;;;;29.52;13.57;;;;;;;;;;5078795;28;20043;-47
2022/03/20 01:33:04;;;;;;;28.60;13.63;;;;;;;;;;5092367;28;20031;-49
2022/03/20 01:35:30;;;;;;;34.63;14.07;;;;;;;;;;5083211;28;20073;-46
2022/03/20 01:37:57;;;;;;;28.67;12.82;;;;;;;;;;5077799;28;20105;-46
2022/03/20 01:40:25;;;;;;;29.20;14.27;;;;;;;;;;5080963;28;20531;-47
2022/03/20 01:42:51;;;;;;;25.45;13.65;;;;;;;;;;5079624;28;20089;-47
2022/03/20 01:45:18;;;;;;;27.88;13.05;;;;;;;;;;5087088;28;20509;-49
2022/03/20 01:47:47;;;;;;;24.13;13.00;;;;;;;;;;5086236;28;20109;-46
2022/03/20 01:50:13;;;;;;;30.92;13.30;;;;;;;;;;5088345;28;20024;-48
2022/03/20 01:52:39;;;;;;;28.15;13.07;;;;;;;;;;5085836;28;20071;-48
2022/03/20 01:55:06;;;;;;;31.92;13.63;;;;;;;;;;5091606;28;20032;-47
2022/03/20 01:57:36;;;;;;;30.33;13.05;;;;;;;;;;5080925;28;20028;-48
2022/03/20 02:00:03;;;;;;;26.67;14.10;;;;;;;;;;5087105;28;20052;-50
2022/03/20 02:02:29;;;;;;;30.92;13.35;;;;;;;;;;5074786;28;20024;-50
2022/03/20 02:04:55;;;;;;;30.73;13.82;;;;;;;;;;5079447;28;20103;-50
2022/03/20 02:07:21;;;;;;;29.17;12.98;;;;;;;;;;5080603;28;20557;-49
2022/03/20 02:09:47;;;;;;;24.17;13.50;;;;;;;;;;5083062;28;20029;-48
2022/03/20 02:12:13;;;;;;;26.80;13.88;;;;;;;;;;5081318;28;20020;-52
2022/03/20 02:14:39;;;;;;;30.02;13.13;;;;;;;;;;5088116;28;20021;-48
2022/03/20 02:17:07;;;;;;;26.27;13.40;;;;;;;;;;5081594;28;20086;-51
2022/03/20 02:19:37;;;;;;;33.33;13.95;;;;;;;;;;5078187;28;20524;-51
2022/03/20 02:22:03;;;;;;;32.88;14.10;;;;;;;;;;5081931;28;20684;-48
2022/03/20 02:24:44;;;;;;;29.60;13.70;;;;;;;;;;5082990;28;20031;-48
2022/03/20 02:27:23;;;;;;;36.42;15.48;;;;;;;;;;5076777;28;20127;-48
2022/03/20 02:29:51;;;;;;;29.17;13.95;;;;;;;;;;5092997;28;20085;-48
2022/03/20 02:32:19;;;;;;;28.95;13.80;;;;;;;;;;5076476;28;20364;-51
2022/03/20 02:34:47;;;;;;;32.95;13.90;;;;;;;;;;5079830;28;20078;-47
2022/03/20 02:37:14;;;;;;;28.00;13.57;;;;;;;;;;5082708;28;20020;-47
2022/03/20 02:39:40;;;;;;;25.42;12.73;;;;;;;;;;5080563;28;20024;-50
2022/03/20 02:42:07;;;;;;;23.35;12.57;;;;;;;;;;5085098;28;20055;-50
2022/03/20 02:44:53;;;;;;;27.65;12.90;;;;;;;;;;5086839;28;20036;-49
2022/03/20 02:47:23;;;;;;;28.77;12.50;;;;;;;;;;5076257;28;20374;-51
2022/03/20 02:49:56;;;;;;;28.45;12.38;;;;;;;;;;5075566;28;20024;-49
2022/03/20 02:52:22;;;;;;;;;;;;;;;;;;5077911;28;20085;-48
2022/03/20 02:54:48;;;;;;;28.77;13.63;;;;;;;;;;5084417;28;20299;-52
2022/03/20 02:57:14;;;;;;;24.58;12.77;;;;;;;;;;5079667;28;20032;-49
2022/03/20 02:59:40;;;;;;;23.55;12.23;;;;;;;;;;5072803;28;20082;-51
2022/03/20 03:02:09;;;;;;;33.50;14.52;;;;;;;;;;5087689;28;20020;-49
2022/03/20 03:04:37;;;;;;;27.67;13.23;;;;;;;;;;5080495;28;20024;-48
2022/03/20 03:07:03;;;;;;;28.80;13.50;;;;;;;;;;5080888;28;20086;-49
2022/03/20 03:12:14;;;;;;;30.70;12.57;;;;;;;;;;5076017;28;20086;-47
2022/03/20 03:17:28;;;;;;;27.52;14.27;;;;;;;;;;5083358;28;20089;-46
2022/03/20 03:19:57;;;;;;;31.45;13.30;;;;;;;;;;5083944;28;20069;-49
2022/03/20 03:22:26;;;;;;;33.65;14.88;;;;;;;;;;5090010;28;20036;-49
2022/03/20 03:24:52;;;;;;;29.02;13.70;;;;;;;;;;5083993;28;20029;-51
2022/03/20 03:27:18;;;;;;;30.55;13.60;;;;;;;;;;5080611;28;20634;-50
2022/03/20 03:29:44;;;;;;;29.60;13.45;;;;;;;;;;5080133;28;20040;-48
2022/03/20 03:32:10;;;;;;;30.95;14.48;;;;;;;;;;5088158;28;20028;-46
2022/03/20 03:37:22;;;;;;;30.75;13.02;;;;;;;;;;5076824;28;20124;-50
2022/03/20 03:39:48;;;;;;;30.77;13.60;;;;;;;;;;5076916;28;20016;-51
2022/03/20 03:42:14;;;;;;;31.27;13.82;;;;;;;;;;5078689;28;20028;-48
2022/03/20 03:44:40;;;;;;;35.97;14.25;;;;;;;;;;5081412;28;20752;-47
2022/03/20 03:47:06;;;;;;;31.15;13.70;;;;;;;;;;5082294;28;20412;-47
2022/03/20 03:49:33;;;;;;;30.55;13.63;;;;;;;;;;5082241;28;20368;-46
2022/03/20 03:51:59;;;;;;;29.00;13.73;;;;;;;;;;5073493;28;20534;-46
2022/03/20 03:54:25;;;;;;;31.13;13.75;;;;;;;;;;5080603;28;20050;-47
2022/03/20 03:56:51;;;;;;;27.60;14.45;;;;;;;;;;5083659;28;20109;-47
2022/03/20 03:59:17;;;;;;;26.15;12.95;;;;;;;;;;5088621;28;20032;-49
2022/03/20 04:01:43;;;;;;;34.72;14.45;;;;;;;;;;5080015;28;20349;-46
2022/03/20 04:04:09;;;;;;;30.08;14.32;;;;;;;;;;5073404;28;20027;-49
2022/03/20 04:06:35;;;;;;;27.75;13.32;;;;;;;;;;5078210;28;20024;-50
2022/03/20 04:09:01;;;;;;;30.55;13.10;;;;;;;;;;5080864;28;20021;-48
2022/03/20 04:11:27;;;;;;;32.95;14.48;;;;;;;;;;5074691;28;20028;-48
2022/03/20 04:13:53;;;;;;;29.42;13.70;;;;;;;;;;5084244;28;20027;-50
2022/03/20 04:16:19;;;;;;;30.52;14.50;;;;;;;;;;5084196;28;20028;-47
2022/03/20 04:18:45;;;;;;;29.23;13.75;;;;;;;;;;5071713;28;20029;-47
2022/03/20 04:21:11;;;;;;;26.08;13.45;;;;;;;;;;5075866;28;20031;-48
2022/03/20 04:23:48;;;;;;;28.98;13.70;;;;;;;;;;5082099;28;20513;-47
2022/03/20 04:26:17;;;;;;;29.27;13.48;;;;;;;;;;5072313;28;20020;-50
2022/03/20 04:28:47;;;;;;;26.08;12.95;;;;;;;;;;5074219;28;20016;-46
2022/03/20 04:31:16;;;;;;;30.80;13.50;;;;;;;;;;5079857;28;20024;-46
2022/03/20 04:33:44;;;;;;;30.10;13.77;;;;;;;;;;5079432;28;20376;-47
2022/03/20 04:36:10;;;;;;;31.58;13.00;;;;;;;;;;5074487;28;20028;-51
2022/03/20 04:38:36;;;;;;;30.60;14.77;;;;;;;;;;5071402;28;20480;-48
2022/03/20 04:41:02;;;;;;;24.95;13.18;;;;;;;;;;5079527;28;20511;-50
2022/03/20 04:43:28;;;;;;;29.45;13.82;;;;;;;;;;5076337;28;20028;-48
2022/03/20 04:45:54;;;;;;;27.60;13.88;;;;;;;;;;5073596;28;20391;-48
2022/03/20 04:59:20;;;;;;;29.92;15.05;;;;;;;;;;5073725;28;20039;-51
2022/03/20 05:01:46;;;;;;;31.77;14.65;;;;;;;;;;5080519;28;20025;-46
2022/03/20 05:04:13;;;;;;;26.90;13.73;;;;;;;;;;5080925;28;20025;-49
2022/03/20 05:06:39;;;;;;;30.90;14.20;;;;;;;;;;5077390;28;20028;-48
2022/03/20 05:14:34;;;;;;;30.42;13.30;;;;;;;;;;5084695;28;20047;-48
2022/03/20 05:17:00;;;;;;;33.35;14.63;;;;;;;;;;5082290;28;20024;-50
2022/03/20 05:19:26;;;;;;;37.75;14.70;;;;;;;;;;5089445;28;20357;-51
2022/03/20 05:21:52;;;;;;;29.63;14.52;;;;;;;;;;5082208;28;20024;-48
2022/03/20 05:24:18;;;;;;;35.58;14.20;;;;;;;;;;5077656;28;20078;-46
2022/03/20 05:26:44;;;;;;;31.33;14.50;;;;;;;;;;5075876;28;20032;-48
2022/03/20 05:29:10;;;;;;;28.55;14.10;;;;;;;;;;5079752;28;20074;-47
2022/03/20 05:31:37;;;;;;;32.58;14.32;;;;;;;;;;5083776;28;20031;-47
2022/03/20 05:34:03;;;;;;;32.53;14.07;;;;;;;;;;5084190;28;20020;-46
2022/03/20 05:36:29;;;;;;;31.35;14.25;;;;;;;;;;5089945;28;20051;-46
2022/03/20 05:38:58;;;;;;;35.45;15.27;;;;;;;;;;5092294;28;20076;-49
2022/03/20 05:44:11;;;;;;;31.10;14.20;;;;;;;;;;5082485;28;20525;-52
2022/03/20 05:46:37;;;;;;;31.88;13.85;;;;;;;;;;5079453;28;20384;-47
2022/03/20 05:49:03;;;;;;;31.88;13.88;;;;;;;;;;5079129;28;20046;-46
2022/03/20 05:51:30;;;;;;;31.40;14.27;;;;;;;;;;5080999;28;20564;-48
2022/03/20 05:53:57;;;;;;;34.35;13.60;;;;;;;;;;5076337;28;20101;-50
2022/03/20 05:59:07;;;;;;;29.70;12.98;;;;;;;;;;5086043;28;20411;-51
2022/03/20 06:01:33;;;;;;;29.98;13.63;;;;;;;;;;5076765;28;20028;-48
2022/03/20 06:04:00;;;;;;;27.48;14.43;;;;;;;;;;5080596;28;20032;-46
2022/03/20 06:06:26;;;;;;;32.10;14.70;;;;;;;;;;5081135;28;20544;-46
2022/03/20 06:08:52;;;;;;;29.45;14.02;;;;;;;;;;5077054;28;20016;-50
2022/03/20 06:11:18;;;;;;;27.30;13.65;;;;;;;;;;5078814;28;20495;-46
2022/03/20 06:13:45;;;;;;;36.42;15.50;;;;;;;;;;5085788;28;20024;-51
2022/03/20 06:16:12;;;;;;;31.95;15.13;;;;;;;;;;5081070;28;20499;-48
2022/03/20 06:18:39;;;;;;;33.85;15.85;;;;;;;;;;5080202;28;20029;-47
2022/03/20 06:21:06;;;;;;;32.50;14.77;;;;;;;;;;5084871;28;20077;-47
2022/03/20 06:23:33;;;;;;;32.00;15.43;;;;;;;;;;5076296;28;20032;-46
2022/03/20 06:25:59;;;;;;;34.67;14.32;;;;;;;;;;5074175;28;20087;-48
2022/03/20 06:28:26;;;;;;;30.52;14.55;;;;;;;;;;5078839;28;20083;-51
2022/03/20 06:30:52;;;;;;;32.42;15.38;;;;;;;;;;5080524;28;20025;-47
2022/03/20 06:33:18;;;;;;;30.92;15.40;;;;;;;;;;5084379;28;20105;-46
2022/03/20 06:35:44;;;;;;;31.77;14.85;;;;;;;;;;5084046;28;20107;-46
2022/03/20 06:38:10;;;;;;;33.85;14.50;;;;;;;;;;5075497;28;20614;-46
2022/03/20 06:40:36;;;;;;;34.47;15.18;;;;;;;;;;5091502;28;20116;-46
2022/03/20 06:43:02;;;;;;;31.70;15.13;;;;;;;;;;5084966;28;20040;-47
2022/03/20 06:45:28;;;;;;;29.08;14.98;;;;;;;;;;5078699;28;20024;-46
2022/03/20 06:47:54;;;;;;;28.30;13.63;;;;;;;;;;5083350;28;20055;-47
2022/03/20 06:50:21;;;;;;;32.58;14.93;;;;;;;;;;5072612;28;20028;-49
2022/03/20 06:52:47;;;;;;;36.00;14.73;;;;;;;;;;5088161;28;20050;-50
2022/03/20 06:55:16;;;;;;;32.25;14.80;;;;;;;;;;5091099;28;20101;-51
2022/03/20 06:57:42;;;;;;;31.17;15.18;;;;;;;;;;5085426;28;20028;-50
2022/03/20 07:00:09;;;;;;;32.42;14.57;;;;;;;;;;5076730;28;20065;-52
2022/03/20 07:02:34;;;;;;;30.65;15.32;;;;;;;;;;5078937;28;20035;-51
2022/03/20 07:05:01;;;;;;;37.17;15.45;;;;;;;;;;5082631;28;20020;-48
2022/03/20 07:07:27;;;;;;;36.20;14.73;;;;;;;;;;5087175;28;20048;-47
2022/03/20 07:09:53;;;;;;;33.55;14.52;;;;;;;;;;5074790;28;20029;-50
2022/03/20 07:12:19;;;;;;;36.67;15.40;;;;;;;;;;5078692;28;20161;-48
2022/03/20 07:14:46;;;;;;;31.63;14.90;;;;;;;;;;5089686;28;20042;-46
2022/03/20 07:17:13;;;;;;;30.13;15.07;;;;;;;;;;5086170;28;20411;-46
2022/03/20 07:19:40;;;;;;;36.88;16.10;;;;;;;;;;5090936;28;20791;-47
2022/03/20 07:22:07;;;;;;;32.17;14.05;;;;;;;;;;5082345;28;20377;-48
2022/03/20 07:24:33;;;;;;;32.75;15.75;;;;;;;;;;5076229;28;20020;-46
2022/03/20 07:29:44;;;;;;;32.25;14.15;;;;;;;;;;5082070;28;20038;-46
2022/03/20 07:32:10;;;;;;;34.05;14.60;;;;;;;;;;5078014;28;20528;-48
2022/03/20 07:34:37;;;;;;;32.40;14.25;;;;;;;;;;5081300;28;20025;-47
2022/03/20 07:37:03;;;;;;;32.00;15.50;;;;;;;;;;5079054;28;20025;-46
2022/03/20 07:39:30;;;;;;;34.75;16.27;;;;;;;;;;5073564;28;20017;-47
2022/03/20 07:41:56;;;;;;;31.25;14.55;;;;;;;;;;5078618;28;20712;-50
2022/03/20 07:44:25;;;;;;;37.42;15.48;;;;;;;;;;5074406;28;20469;-51
2022/03/20 07:46:53;;;;;;;32.75;14.32;;;;;;;;;;5078626;28;20016;-47
2022/03/20 07:49:20;;;;;;;30.23;15.88;;;;;;;;;;5072821;28;20025;-47
2022/03/20 07:51:46;;;;;;;31.58;15.13;;;;;;;;;;5083216;28;20480;-48
2022/03/20 07:54:13;;;;;;;31.33;15.95;;;;;;;;;;5084566;28;20496;-47
2022/03/20 07:56:38;;;;;;;34.55;16.00;;;;;;;;;;5083806;28;20024;-46
2022/03/20 07:59:05;;;;;;;35.42;16.88;;;;;;;;;;5085990;28;20101;-48
2022/03/20 08:01:32;;;;;;;33.08;15.27;;;;;;;;;;5079878;28;20020;-47
2022/03/20 08:03:58;;;;;;;34.53;15.93;;;;;;;;;;5080951;28;20027;-50
2022/03/20 08:06:24;;;;;;;35.53;16.20;;;;;;;;;;5080374;28;20416;-47
2022/03/20 08:08:50;;;;;;;36.60;14.77;;;;;;;;;;5076409;28;20036;-47
2022/03/20 08:11:16;;;;;;;31.60;14.63;;;;;;;;;;5076290;28;20059;-46
2022/03/20 08:13:44;;;;;;;34.63;15.50;;;;;;;;;;5088025;28;20039;-48
2022/03/20 08:16:15;;;;;;;29.98;13.60;;;;;;;;;;5089778;28;20043;-51
2022/03/20 08:18:42;;;;;;;32.15;14.90;;;;;;;;;;5077959;28;20024;-52
2022/03/20 08:21:09;;;;;;;31.35;13.88;;;;;;;;;;5082048;28;20045;-48
2022/03/20 08:23:36;;;;;;;33.50;15.45;;;;;;;;;;5084116;28;20032;-49
2022/03/20 08:26:02;;;;;;;29.13;13.60;;;;;;;;;;5072616;28;20024;-48
2022/03/20 08:28:28;;;;;;;33.83;15.18;;;;;;;;;;5091450;28;20448;-46
2022/03/20 08:30:54;;;;;;;30.45;15.57;;;;;;;;;;5074131;28;20031;-49
2022/03/20 08:33:20;;;;;;;33.67;14.70;;;;;;;;;;5083163;28;20062;-51
2022/03/20 08:35:46;;;;;;;28.52;13.68;;;;;;;;;;5086893;28;20028;-47
2022/03/20 08:38:12;;;;;;;32.42;15.48;;;;;;;;;;5080632;28;20057;-48
2022/03/20 08:40:38;;;;;;;28.02;13.82;;;;;;;;;;5081339;28;20363;-50
2022/03/20 08:43:04;;;;;;;28.42;14.75;;;;;;;;;;5087174;28;20030;-48
2022/03/20 08:45:33;;;;;;;26.77;13.68;;;;;;;;;;5080340;28;20032;-48
2022/03/20 08:47:59;;;;;;;30.77;14.13;;;;;;;;;;5086128;28;20035;-48
2022/03/20 08:50:25;;;;;;;30.60;14.50;;;;;;;;;;5091276;28;20107;-51
2022/03/20 08:52:53;;;;;;;29.75;13.88;;;;;;;;;;5081699;28;20048;-50
2022/03/20 08:55:19;;;;;;;26.30;12.88;;;;;;;;;;5078323;28;20031;-52
2022/03/20 08:57:47;;;;;;;30.25;14.68;;;;;;;;;;5080221;28;20376;-52
2022/03/20 09:00:15;;;;;;;27.15;13.95;;;;;;;;;;5077827;28;20123;-50
2022/03/20 09:02:45;;;;;;;29.90;14.55;;;;;;;;;;5079556;28;20047;-49
2022/03/20 09:05:12;;;;;;;31.02;13.85;;;;;;;;;;5082571;28;20020;-50
2022/03/20 09:07:41;;;;;;;28.70;13.30;;;;;;;;;;5082126;28;20582;-52
2022/03/20 09:10:08;;;;;;;30.15;13.65;;;;;;;;;;5082715;28;20078;-50
2022/03/20 09:12:42;;;;;;;27.77;13.73;;;;;;;;;;5085993;28;20042;-52
2022/03/20 09:15:10;;;;;;;30.23;12.93;;;;;;;;;;5078820;28;20032;-49
2022/03/20 09:20:20;;;;;;;26.02;13.63;;;;;;;;;;5084004;28;20027;-48
2022/03/20 09:22:46;;;;;;;27.33;13.07;;;;;;;;;;5089831;28;20024;-50
2022/03/20 09:25:13;;;;;;;24.27;12.80;;;;;;;;;;5081443;28;20035;-49
2022/03/20 09:27:39;;;;;;;29.27;12.13;;;;;;;;;;5078313;28;20028;-49
2022/03/20 09:30:05;;;;;;;23.75;11.73;;;;;;;;;;5081522;28;20036;-48
2022/03/20 09:32:31;;;;;;;28.15;12.77;;;;;;;;;;5085693;28;20410;-49
2022/03/20 09:34:57;;;;;;;28.73;12.70;;;;;;;;;;5088804;28;20498;-50
2022/03/20 09:37:23;;;;;;;27.75;13.43;;;;;;;;;;5093338;28;20032;-48
2022/03/20 09:39:49;;;;;;;23.48;12.13;;;;;;;;;;5085988;28;20033;-49
2022/03/20 09:42:18;;;;;;;28.95;12.02;;;;;;;;;;5084422;28;20032;-48
2022/03/20 09:44:45;;;;;;;25.20;12.75;;;;;;;;;;5079565;28;20427;-50
2022/03/20 09:47:12;;;;;;;23.08;12.18;;;;;;;;;;5079915;28;20028;-49
2022/03/20 09:49:38;;;;;;;27.10;12.13;;;;;;;;;;5082386;28;20047;-49
2022/03/20 09:52:06;;;;;;;25.50;12.90;;;;;;;;;;5079628;28;20032;-46
2022/03/20 09:54:32;;;;;;;25.65;12.40;;;;;;;;;;5085987;28;20629;-47
2022/03/20 09:56:59;;;;;;;25.58;11.77;;;;;;;;;;5089207;28;20036;-47
2022/03/20 09:59:25;;;;;;;26.92;11.30;;;;;;;;;;5085572;28;20385;-47
2022/03/20 10:01:51;;;;;;;27.45;12.50;;;;;;;;;;5076983;28;20066;-48
2022/03/20 10:04:18;;;;;;;24.80;12.65;;;;;;;;;;5080041;28;20058;-50
2022/03/20 10:06:45;;;;;;;24.67;11.80;;;;;;;;;;5080204;28;20033;-47
2022/03/20 10:09:12;;;;;;;20.58;10.85;;;;;;;;;;5080787;28;20074;-48
2022/03/20 10:11:47;;;;;;;22.15;11.88;;;;;;;;;;5087452;28;20423;-49
2022/03/20 10:14:20;;;;;;;24.13;11.05;;;;;;;;;;5080113;28;20115;-47
2022/03/20 10:16:48;;;;;;;29.23;12.65;;;;;;;;;;5079498;28;20028;-48
2022/03/20 10:19:23;;;;;;;22.65;10.13;;;;;;;;;;5078354;28;20032;-49
2022/03/20 10:21:54;;;;;;;22.80;11.73;;;;;;;;;;5092441;28;20172;-50
2022/03/20 10:24:21;;;;;;;20.42;10.65;;;;;;;;;;5077764;28;20036;-47
2022/03/20 10:26:52;;;;;;;21.88;10.57;;;;;;;;;;5071740;28;20082;-51
2022/03/20 10:29:18;;;;;;;18.60;11.25;;;;;;;;;;5081062;28;20084;-50
2022/03/20 10:31:51;;;;;;;21.67;10.25;;;;;;;;;;5078159;28;21531;-48
2022/03/20 10:34:17;;;;;;;19.88;10.65;;;;;;;;;;5077409;28;20028;-50
2022/03/20 10:36:44;;;;;;;18.73;9.80;;;;;;;;;;5079688;28;20029;-51
2022/03/20 10:39:11;;;;;;;19.95;9.73;;;;;;;;;;5080910;28;20048;-50
2022/03/20 10:41:38;;;;;;;20.23;9.75;;;;;;;;;;5074277;28;20056;-47
2022/03/20 10:44:13;;;;;;;16.52;9.98;;;;;;;;;;5077945;28;20036;-48
2022/03/20 10:46:39;;;;;;;17.65;9.55;;;;;;;;;;5087884;28;20452;-49
2022/03/20 10:49:06;;;;;;;20.25;10.10;;;;;;;;;;5076757;28;20438;-46
2022/03/20 10:51:39;;;;;;;19.17;8.75;;;;;;;;;;5081380;28;20027;-49
2022/03/20 10:54:07;;;;;;;19.15;9.30;;;;;;;;;;5087978;28;20044;-49
2022/03/20 10:56:33;;;;;;;17.73;8.35;;;;;;;;;;5086246;28;20052;-49
2022/03/20 10:59:00;;;;;;;18.25;9.57;;;;;;;;;;5083918;28;20498;-50
2022/03/20 11:01:36;;;;;;;16.88;9.38;;;;;;;;;;5083935;28;20135;-48
2022/03/20 11:04:02;;;;;;;19.38;9.77;;;;;;;;;;5079202;28;20397;-49
2022/03/20 11:06:28;;;;;;;16.48;8.55;;;;;;;;;;5074693;28;20036;-51
2022/03/20 11:08:54;;;;;;;16.13;9.32;;;;;;;;;;5088489;28;20031;-49
2022/03/20 11:11:20;;;;;;;15.63;8.82;;;;;;;;;;5088688;28;20031;-49
2022/03/20 11:13:48;;;;;;;16.20;8.57;;;;;;;;;;5084629;28;20028;-48
2022/03/20 11:16:15;;;;;;;18.58;8.88;;;;;;;;;;5078519;28;20064;-46
2022/03/20 11:18:41;;;;;;;16.83;9.15;;;;;;;;;;5088258;28;20024;-50
2022/03/20 11:21:10;;;;;;;18.85;9.68;;;;;;;;;;5087765;28;20020;-46
2022/03/20 11:23:36;;;;;;;15.07;7.90;;;;;;;;;;5092168;28;20026;-48
2022/03/20 11:26:03;;;;;;;17.80;8.52;;;;;;;;;;5082684;28;20032;-49
2022/03/20 11:28:31;;;;;;;16.35;8.23;;;;;;;;;;5076085;28;20028;-47
2022/03/20 11:30:58;;;;;;;15.55;7.03;;;;;;;;;;5077805;28;20404;-46
2022/03/20 11:33:25;;;;;;;12.85;7.35;;;;;;;;;;5075884;28;20035;-46
2022/03/20 11:35:51;;;;;;;16.10;7.63;;;;;;;;;;5082785;28;20115;-52
2022/03/20 11:38:17;;;;;;;13.63;7.90;;;;;;;;;;5081986;28;20037;-49
2022/03/20 11:41:04;;;;;;;18.80;8.55;;;;;;;;;;5080464;28;20040;-46
2022/03/20 11:43:30;;;;;;;15.55;7.72;;;;;;;;;;5075281;28;20032;-48
2022/03/20 11:46:22;;;;;;;12.20;7.68;;;;;;;;;;5078903;28;20028;-51
2022/03/20 11:49:08;;;;;;;15.25;8.25;;;;;;;;;;5084067;28;20447;-47
2022/03/20 11:52:06;;;;;;;15.02;7.65;;;;;;;;;;5079934;28;20081;-46
2022/03/20 11:54:41;;;;;;;13.73;7.47;;;;;;;;;;5071107;28;20249;-47
2022/03/20 11:57:28;;;;;;;13.98;7.55;;;;;;;;;;5079686;28;20376;-46
2022/03/20 11:59:55;;;;;;;13.88;6.97;;;;;;;;;;5075406;28;20441;-47
2022/03/20 12:02:24;;;;;;;13.05;6.95;;;;;;;;;;5085160;28;20017;-46
2022/03/20 12:04:59;;;;;;;15.32;8.13;;;;;;;;;;5078498;28;20064;-47
2022/03/20 12:07:39;;;;;;;13.85;8.25;;;;;;;;;;5076959;28;20388;-46
2022/03/20 12:10:31;;;;;;;14.93;7.80;;;;;;;;;;5077334;28;20121;-49
2022/03/20 12:13:16;;;;;;;15.93;8.60;;;;;;;;;;5081306;28;20111;-46
2022/03/20 12:15:46;;;;;;;13.18;7.18;;;;;;;;;;5083015;28;20438;-47
2022/03/20 12:18:12;;;;;;;14.85;7.50;;;;;;;;;;5087972;28;20103;-46
2022/03/20 12:21:04;;;;;;;15.05;7.90;;;;;;;;;;5087433;28;20020;-49
2022/03/20 12:23:33;;;;;;;13.98;7.22;;;;;;;;;;5088025;28;20032;-48
2022/03/20 12:26:19;;;;;;;13.48;7.60;;;;;;;;;;5095196;28;20060;-46
2022/03/20 12:28:45;;;;;;;13.57;7.72;;;;;;;;;;5081887;28;20059;-52
2022/03/20 12:31:11;;;;;;;13.98;7.35;;;;;;;;;;5083047;28;20032;-47
2022/03/20 12:33:37;;;;;;;13.07;7.57;;;;;;;;;;5093106;28;20371;-51
2022/03/20 12:36:03;;;;;;;14.23;7.75;;;;;;;;;;5081610;28;20028;-46
2022/03/20 12:38:34;;;;;;;13.07;7.05;;;;;;;;;;5088531;28;20035;-45
2022/03/20 12:41:10;;;;;;;15.38;7.47;;;;;;;;;;5086364;28;20364;-50
2022/03/20 12:43:36;;;;;;;14.27;7.43;;;;;;;;;;5087097;28;20182;-47
2022/03/20 12:46:02;;;;;;;13.60;7.70;;;;;;;;;;5089746;28;20023;-50
2022/03/20 12:48:31;;;;;;;16.35;7.50;;;;;;;;;;5080566;28;20033;-50
2022/03/20 12:51:04;;;;;;;10.77;6.82;;;;;;;;;;5081428;28;20016;-47
2022/03/20 12:53:37;;;;;;;14.68;7.20;;;;;;;;;;5076968;28;20052;-49
2022/03/20 12:56:08;;;;;;;12.20;7.20;;;;;;;;;;5089467;28;20515;-47
2022/03/20 12:58:34;;;;;;;19.13;8.40;;;;;;;;;;5091933;28;20040;-46
2022/03/20 13:01:06;;;;;;;11.88;6.88;;;;;;;;;;5083454;28;20043;-50
2022/03/20 13:03:35;;;;;;;12.35;6.72;;;;;;;;;;5083332;28;20108;-51
2022/03/20 13:06:02;;;;;;;14.10;7.28;;;;;;;;;;5091531;28;20494;-50
2022/03/20 13:08:30;;;;;;;12.50;7.47;;;;;;;;;;5089341;28;20065;-51
2022/03/20 13:10:57;;;;;;;16.77;7.85;;;;;;;;;;5075884;28;20062;-50
2022/03/20 13:13:36;;;;;;;13.77;7.80;;;;;;;;;;5088715;28;20522;-51
2022/03/20 13:16:03;;;;;;;15.38;7.35;;;;;;;;;;5090816;28;20095;-50
2022/03/20 13:18:35;;;;;;;14.82;7.22;;;;;;;;;;5083824;28;20032;-49
2022/03/20 13:21:05;;;;;;;15.07;7.13;;;;;;;;;;5090147;28;20089;-46
2022/03/20 13:23:31;;;;;;;14.07;7.72;;;;;;;;;;5081795;28;20115;-48
2022/03/20 13:25:58;;;;;;;13.95;7.13;;;;;;;;;;5087726;28;20032;-47
2022/03/20 13:28:28;;;;;;;14.02;7.63;;;;;;;;;;5086286;28;20048;-46
2022/03/20 13:30:56;;;;;;;13.18;6.80;;;;;;;;;;5092407;28;20027;-46
2022/03/20 13:33:32;;;;;;;13.00;6.35;;;;;;;;;;5080675;28;20154;-49
2022/03/20 13:36:08;;;;;;;14.00;6.40;;;;;;;;;;5086599;28;20114;-47
2022/03/20 13:38:38;;;;;;;12.55;7.10;;;;;;;;;;5088319;28;20032;-49
2022/03/20 13:41:05;;;;;;;14.55;7.57;;;;;;;;;;5082083;28;20024;-51
2022/03/20 13:43:31;;;;;;;10.65;6.35;;;;;;;;;;5087438;28;20032;-48
2022/03/20 13:46:09;;;;;;;17.20;7.53;;;;;;;;;;5087247;28;20082;-47
2022/03/20 13:48:36;;;;;;;14.90;7.65;;;;;;;;;;5089810;28;20028;-48
2022/03/20 13:51:04;;;;;;;12.35;6.80;;;;;;;;;;5089739;28;20368;-49
2022/03/20 13:53:30;;;;;;;11.77;6.93;;;;;;;;;;5086279;28;20124;-46
2022/03/20 13:55:56;;;;;;;12.43;6.88;;;;;;;;;;5081581;28;20504;-46
2022/03/20 13:58:22;;;;;;;13.38;7.45;;;;;;;;;;5086722;28;20503;-46
2022/03/20 14:00:58;;;;;;;12.60;6.80;;;;;;;;;;5083933;28;20079;-46
2022/03/20 14:03:26;;;;;;;9.50;6.07;;;;;;;;;;5081776;28;20027;-47
2022/03/20 14:05:52;;;;;;;12.50;6.72;;;;;;;;;;5083373;28;20028;-47
2022/03/20 14:08:20;;;;;;;11.15;5.50;;;;;;;;;;5093089;28;20492;-48
2022/03/20 14:10:53;;;;;;;10.75;6.20;;;;;;;;;;5089871;28;20043;-47
2022/03/20 14:13:19;;;;;;;11.98;6.47;;;;;;;;;;5091004;28;20035;-45
2022/03/20 14:16:05;;;;;;;13.93;6.70;;;;;;;;;;5077723;28;20063;-48
2022/03/20 14:18:32;;;;;;;20.98;6.93;;;;;;;;;;5084123;28;20028;-47
2022/03/20 14:21:21;;;;;;;10.13;6.47;;;;;;;;;;5089178;28;20032;-45
2022/03/20 14:24:06;;;;;;;10.98;6.22;;;;;;;;;;5084165;28;20647;-46
2022/03/20 14:26:33;;;;;;;11.32;6.28;;;;;;;;;;5087784;28;20048;-46
2022/03/20 14:29:05;;;;;;;9.55;5.60;;;;;;;;;;5085238;28;20123;-45
2022/03/20 14:39:49;;;;;;;13.95;6.13;;;;;;;;;;5078252;28;20048;-45
2022/03/20 14:42:31;;;;;;;16.00;6.50;;;;;;;;;;5082939;28;20032;-46
2022/03/20 14:44:57;;;;;;;10.20;6.03;;;;;;;;;;5091813;28;20380;-46
2022/03/20 14:47:25;;;;;;;13.30;7.18;;;;;;;;;;5087254;28;20060;-46
2022/03/20 14:49:51;;;;;;;13.88;6.05;;;;;;;;;;5080122;28;20035;-47
2022/03/20 14:52:19;;;;;;;16.77;7.68;;;;;;;;;;5083773;28;20468;-47
2022/03/20 14:54:45;;;;;;;19.42;6.75;;;;;;;;;;5084175;28;20025;-49
2022/03/20 14:57:11;;;;;;;33.78;8.48;;;;;;;;;;5086364;28;20035;-46
2022/03/20 14:59:39;;;;;;;13.27;6.28;;;;;;;;;;5079236;28;20021;-48
2022/03/20 15:02:05;;;;;;;13.73;6.28;;;;;;;;;;5089702;28;20440;-49
2022/03/20 15:04:33;;;;;;;10.43;6.38;;;;;;;;;;5076278;28;20020;-47
2022/03/20 15:07:00;;;;;;;11.65;6.65;;;;;;;;;;5073757;28;20065;-46
2022/03/20 15:12:12;;;;;;;13.55;7.13;;;;;;;;;;5090810;28;20035;-48